Terminal Aerodrome Forecast
Issued by NWS

Home | Current Version | Previous Version | Text Only | Print | Product List | Glossary On
Versions: 1 2 3 4 5 6 7 8 9 10 11 12 13 14
088
FTUS46 KSEW 200520
TAFOLM
TAF
KOLM 200520Z 2006/2106 21006KT P6SM FEW020 BKN045 OVC070
      TEMPO 2006/2010 -SHRA BKN020 OVC045
     FM201000 20006KT P6SM -SHRA SCT010 OVC020
     FM202000 23012G18KT P6SM -SHRA SCT030 BKN050 OVC100
     FM210100 21006KT P6SM SCT035 BKN080 OVC120=

USA.gov is the U.S. government's official web portal to all federal, state and local government web resources and services.